Global Endeavor — 3EOJ9 — position and weather

sailwx.info

Track history (hours):
 
Tides and Currents Weather Stations Pressure Air Temp Water Temp Dewpoint Dewpoint Depression Visibility Wind Speed Wind Dir Waves Ship Positions

Global Endeavor

Last reported at 2014-Oct-25 23:26 UTC. Time now 2014-Oct-25 23:39 UTC.
Position N 35°07' E 119°25'.

Length 175 m; draft 9.5 m.

Type: Cargo ship. MMSI: 356619000.

Date/timePositionNaut miles runAvg speedWind from/ knotsBaromVisibWave heightAir tempDewpointWater temp
2014-Oct-25 23:26N 35°07' E 119°25'0 0.0
2014-Oct-25 22:32N 35°07' E 119°25'0 0.0
2014-Oct-25 21:26N 35°07' E 119°25'0 0.0
2014-Oct-25 20:32N 35°07' E 119°25'0 0.0
2014-Oct-25 19:26N 35°07' E 119°25'0 0.0
2014-Oct-25 18:32N 35°07' E 119°25'0 0.0
2014-Oct-25 17:32N 35°07' E 119°25'0 0.0
2014-Oct-25 16:32N 35°07' E 119°25'0 0.0
2014-Oct-25 15:32N 35°07' E 119°25'0 0.0
2014-Oct-25 14:32N 35°07' E 119°25'0 0.0
2014-Oct-25 13:26N 35°07' E 119°25'0 0.0
2014-Oct-25 12:32N 35°07' E 119°25'0 0.0
2014-Oct-25 11:32N 35°07' E 119°25'0 0.0
2014-Oct-25 10:32N 35°07' E 119°25'0 0.0
2014-Oct-25 09:32N 35°07' E 119°25'0 0.0
2014-Oct-25 08:32N 35°07' E 119°25'0 0.0
2014-Oct-25 07:14N 35°07' E 119°25'0 0.0
2014-Oct-25 06:26N 35°07' E 119°25'0 0.0
2014-Oct-25 05:14N 35°07' E 119°25'0 0.0
2014-Oct-25 04:32N 35°07' E 119°25'0 0.0
2014-Oct-25 03:32N 35°07' E 119°25'0 0.0
2014-Oct-25 02:32N 35°07' E 119°25'0 0.0
2014-Oct-25 01:32N 35°07' E 119°25'0 0.0
2014-Oct-25 00:26N 35°07' E 119°25'0 0.0
2014-Oct-24 23:26N 35°07' E 119°25'0 0.0
2014-Oct-24 22:26N 35°07' E 119°25'0 0.0
2014-Oct-24 21:32N 35°07' E 119°25'0 0.0
2014-Oct-24 20:32N 35°07' E 119°25'0 0.0
2014-Oct-24 19:32N 35°07' E 119°25'0 0.0
2014-Oct-24 18:32N 35°07' E 119°25'0 0.0
2014-Oct-24 17:32N 35°07' E 119°25'0 0.0
2014-Oct-24 16:32N 35°07' E 119°25'0 0.0
2014-Oct-24 15:32N 35°07' E 119°25'0 0.0
2014-Oct-24 14:26N 35°07' E 119°25'0 0.0
2014-Oct-24 13:32N 35°07' E 119°25'0 0.0
2014-Oct-24 12:26N 35°07' E 119°25'0 0.0
2014-Oct-24 11:32N 35°07' E 119°25'0 0.0
2014-Oct-24 10:32N 35°07' E 119°25'0 0.0
2014-Oct-24 09:32N 35°07' E 119°25'0 0.0
2014-Oct-24 08:26N 35°07' E 119°25'0 0.0
2014-Oct-24 07:26N 35°07' E 119°25'0 0.0
2014-Oct-24 06:32N 35°07' E 119°25'0 0.0
2014-Oct-24 05:32N 35°07' E 119°25'0 0.0
2014-Oct-24 04:32N 35°07' E 119°25'0 0.0
2014-Oct-24 03:26N 35°07' E 119°25'0 0.0
2014-Oct-24 02:32N 35°07' E 119°25'0 0.0
2014-Oct-24 01:32N 35°07' E 119°25'0 0.0
2014-Oct-24 00:32N 35°07' E 119°25'0 0.0
2014-Oct-23 23:32N 35°07' E 119°25'0 0.0
2014-Oct-23 22:32N 35°07' E 119°25'0 0.0
2014-Oct-23 21:26N 35°07' E 119°25'0 0.0
2014-Oct-23 20:32N 35°07' E 119°25'0 0.0
2014-Oct-23 19:32N 35°07' E 119°25'0 0.0
2014-Oct-23 18:32N 35°07' E 119°25'0 0.0
2014-Oct-23 17:19N 35°07' E 119°25'0 0.0
2014-Oct-23 16:31N 35°07' E 119°25'0 0.0
2014-Oct-23 15:31N 35°07' E 119°25'0 0.0
2014-Oct-23 14:31N 35°07' E 119°25'0 0.0
2014-Oct-23 13:32N 35°07' E 119°25'0 0.0
2014-Oct-23 12:14N 35°07' E 119°25'0 0.0
2014-Oct-23 11:20N 35°07' E 119°25'0 0.0
2014-Oct-23 10:32N 35°07' E 119°25'0 0.0
2014-Oct-23 09:32N 35°07' E 119°25'0 0.0
2014-Oct-23 08:32N 35°07' E 119°25'0 0.0
2014-Oct-23 07:32N 35°07' E 119°25'4 4.4
2014-Oct-23 06:33N 35°06' E 119°30'8 7.6
2014-Oct-23 05:32N 35°05' E 119°39'0 0.1
2014-Oct-23 04:14N 35°05' E 119°40'1 0.5
2014-Oct-23 02:32N 35°06' E 119°40'7 7.3
2014-Oct-23 01:33N 35°07' E 119°48'  
Track history (hours):
 
Tides and Currents Weather Stations Pressure Air Temp Water Temp Dewpoint Dewpoint Depression Visibility Wind Speed Wind Dir Waves Ship Positions

Global Endeavor

Last reported at 2014-Oct-25 23:26 UTC. Time now 2014-Oct-25 23:39 UTC.
Position N 35°07' E 119°25'.

Length 175 m; draft 9.5 m.

Type: Cargo ship. MMSI: 356619000.

Date/timePositionNaut miles runAvg speedWind from/ knotsBaromVisibWave heightAir tempDewpointWater temp
2014-Oct-25 23:26N 35°07' E 119°25'0 0.0
2014-Oct-25 22:32N 35°07' E 119°25'0 0.0
2014-Oct-25 21:26N 35°07' E 119°25'0 0.0
2014-Oct-25 20:32N 35°07' E 119°25'0 0.0
2014-Oct-25 19:26N 35°07' E 119°25'0 0.0
2014-Oct-25 18:32N 35°07' E 119°25'0 0.0
2014-Oct-25 17:32N 35°07' E 119°25'0 0.0
2014-Oct-25 16:32N 35°07' E 119°25'0 0.0
2014-Oct-25 15:32N 35°07' E 119°25'0 0.0
2014-Oct-25 14:32N 35°07' E 119°25'0 0.0
2014-Oct-25 13:26N 35°07' E 119°25'0 0.0
2014-Oct-25 12:32N 35°07' E 119°25'0 0.0
2014-Oct-25 11:32N 35°07' E 119°25'0 0.0
2014-Oct-25 10:32N 35°07' E 119°25'0 0.0
2014-Oct-25 09:32N 35°07' E 119°25'0 0.0
2014-Oct-25 08:32N 35°07' E 119°25'0 0.0
2014-Oct-25 07:14N 35°07' E 119°25'0 0.0
2014-Oct-25 06:26N 35°07' E 119°25'0 0.0
2014-Oct-25 05:14N 35°07' E 119°25'0 0.0
2014-Oct-25 04:32N 35°07' E 119°25'0 0.0
2014-Oct-25 03:32N 35°07' E 119°25'0 0.0
2014-Oct-25 02:32N 35°07' E 119°25'0 0.0
2014-Oct-25 01:32N 35°07' E 119°25'0 0.0
2014-Oct-25 00:26N 35°07' E 119°25'0 0.0
2014-Oct-24 23:26N 35°07' E 119°25'0 0.0
2014-Oct-24 22:26N 35°07' E 119°25'0 0.0
2014-Oct-24 21:32N 35°07' E 119°25'0 0.0
2014-Oct-24 20:32N 35°07' E 119°25'0 0.0
2014-Oct-24 19:32N 35°07' E 119°25'0 0.0
2014-Oct-24 18:32N 35°07' E 119°25'0 0.0
2014-Oct-24 17:32N 35°07' E 119°25'0 0.0
2014-Oct-24 16:32N 35°07' E 119°25'0 0.0
2014-Oct-24 15:32N 35°07' E 119°25'0 0.0
2014-Oct-24 14:26N 35°07' E 119°25'0 0.0
2014-Oct-24 13:32N 35°07' E 119°25'0 0.0
2014-Oct-24 12:26N 35°07' E 119°25'0 0.0
2014-Oct-24 11:32N 35°07' E 119°25'0 0.0
2014-Oct-24 10:32N 35°07' E 119°25'0 0.0
2014-Oct-24 09:32N 35°07' E 119°25'0 0.0
2014-Oct-24 08:26N 35°07' E 119°25'0 0.0
2014-Oct-24 07:26N 35°07' E 119°25'0 0.0
2014-Oct-24 06:32N 35°07' E 119°25'0 0.0
2014-Oct-24 05:32N 35°07' E 119°25'0 0.0
2014-Oct-24 04:32N 35°07' E 119°25'0 0.0
2014-Oct-24 03:26N 35°07' E 119°25'0 0.0
2014-Oct-24 02:32N 35°07' E 119°25'0 0.0
2014-Oct-24 01:32N 35°07' E 119°25'0 0.0
2014-Oct-24 00:32N 35°07' E 119°25'0 0.0
2014-Oct-23 23:32N 35°07' E 119°25'0 0.0
2014-Oct-23 22:32N 35°07' E 119°25'0 0.0
2014-Oct-23 21:26N 35°07' E 119°25'0 0.0
2014-Oct-23 20:32N 35°07' E 119°25'0 0.0
2014-Oct-23 19:32N 35°07' E 119°25'0 0.0
2014-Oct-23 18:32N 35°07' E 119°25'0 0.0
2014-Oct-23 17:19N 35°07' E 119°25'0 0.0
2014-Oct-23 16:31N 35°07' E 119°25'0 0.0
2014-Oct-23 15:31N 35°07' E 119°25'0 0.0
2014-Oct-23 14:31N 35°07' E 119°25'0 0.0
2014-Oct-23 13:32N 35°07' E 119°25'0 0.0
2014-Oct-23 12:14N 35°07' E 119°25'0 0.0
2014-Oct-23 11:20N 35°07' E 119°25'0 0.0
2014-Oct-23 10:32N 35°07' E 119°25'0 0.0
2014-Oct-23 09:32N 35°07' E 119°25'0 0.0
2014-Oct-23 08:32N 35°07' E 119°25'0 0.0
2014-Oct-23 07:32N 35°07' E 119°25'4 4.4
2014-Oct-23 06:33N 35°06' E 119°30'8 7.6
2014-Oct-23 05:32N 35°05' E 119°39'0 0.1
2014-Oct-23 04:14N 35°05' E 119°40'1 0.5
2014-Oct-23 02:32N 35°06' E 119°40'7 7.3
2014-Oct-23 01:33N 35°07' E 119°48'  

Dump ship's entire track history